sensor_id;sensor_type;location;lat;lon;timestamp;temperature;humidity
3614;DHT22;1821;50.936;6.854;2022-07-23T00:00:06;18.80;99.90
3614;DHT22;1821;50.936;6.854;2022-07-23T00:00:49;18.80;99.90
3614;DHT22;1821;50.936;6.854;2022-07-23T00:01:31;18.80;99.90
3614;DHT22;1821;50.936;6.854;2022-07-23T00:02:13;18.90;99.90
3614;DHT22;1821;50.936;6.854;2022-07-23T00:02:55;18.80;99.90
3614;DHT22;1821;50.936;6.854;2022-07-23T00:03:37;18.80;99.90
3614;DHT22;1821;50.936;6.854;2022-07-23T00:04:18;18.60;99.90
3614;DHT22;1821;50.936;6.854;2022-07-23T00:05:00;18.70;99.90
3614;DHT22;1821;50.936;6.854;2022-07-23T00:05:42;18.70;99.90
3614;DHT22;1821;50.936;6.854;2022-07-23T00:06:25;18.60;99.90
3614;DHT22;1821;50.936;6.854;2022-07-23T00:07:06;18.60;99.90
3614;DHT22;1821;50.936;6.854;2022-07-23T00:07:48;18.60;99.90
3614;DHT22;1821;50.936;6.854;2022-07-23T00:08:30;18.60;99.90
3614;DHT22;1821;50.936;6.854;2022-07-23T00:09:12;18.60;99.90
3614;DHT22;1821;50.936;6.854;2022-07-23T00:09:53;18.50;99.90
3614;DHT22;1821;50.936;6.854;2022-07-23T00:10:35;18.50;99.90
3614;DHT22;1821;50.936;6.854;2022-07-23T00:11:17;18.60;99.90
3614;DHT22;1821;50.936;6.854;2022-07-23T00:11:59;18.40;99.90
3614;DHT22;1821;50.936;6.854;2022-07-23T00:12:41;18.30;99.90
3614;DHT22;1821;50.936;6.854;2022-07-23T00:13:32;18.30;99.90
3614;DHT22;1821;50.936;6.854;2022-07-23T00:14:14;18.30;99.90
3614;DHT22;1821;50.936;6.854;2022-07-23T00:14:56;18.60;99.90
3614;DHT22;1821;50.936;6.854;2022-07-23T00:15:38;18.90;99.90
3614;DHT22;1821;50.936;6.854;2022-07-23T00:16:20;18.40;99.90
3614;DHT22;1821;50.936;6.854;2022-07-23T00:17:01;18.30;99.90
3614;DHT22;1821;50.936;6.854;2022-07-23T00:17:43;18.30;99.90
3614;DHT22;1821;50.936;6.854;2022-07-23T00:18:25;18.30;99.90
3614;DHT22;1821;50.936;6.854;2022-07-23T00:19:07;18.30;99.90
3614;DHT22;1821;50.936;6.854;2022-07-23T00:19:48;18.20;99.90
3614;DHT22;1821;50.936;6.854;2022-07-23T00:20:30;18.10;99.90
3614;DHT22;1821;50.936;6.854;2022-07-23T00:21:12;18.20;99.90
3614;DHT22;1821;50.936;6.854;2022-07-23T00:21:54;18.20;99.90
3614;DHT22;1821;50.936;6.854;2022-07-23T00:22:35;18.30;99.90
3614;DHT22;1821;50.936;6.854;2022-07-23T00:23:17;18.20;99.90
3614;DHT22;1821;50.936;6.854;2022-07-23T00:23:59;18.20;99.90
3614;DHT22;1821;50.936;6.854;2022-07-23T00:24:41;18.30;99.90
3614;DHT22;1821;50.936;6.854;2022-07-23T00:25:23;18.40;99.90
3614;DHT22;1821;50.936;6.854;2022-07-23T00:26:09;18.20;99.90
3614;DHT22;1821;50.936;6.854;2022-07-23T00:26:51;18.30;99.90
3614;DHT22;1821;50.936;6.854;2022-07-23T00:27:33;18.30;99.90
3614;DHT22;1821;50.936;6.854;2022-07-23T00:28:15;18.30;99.90
3614;DHT22;1821;50.936;6.854;2022-07-23T00:28:57;18.40;99.90
3614;DHT22;1821;50.936;6.854;2022-07-23T00:29:39;18.40;99.90
3614;DHT22;1821;50.936;6.854;2022-07-23T00:30:21;18.30;99.90
3614;DHT22;1821;50.936;6.854;2022-07-23T00:31:02;18.30;99.90
3614;DHT22;1821;50.936;6.854;2022-07-23T00:31:44;18.30;99.90
3614;DHT22;1821;50.936;6.854;2022-07-23T00:32:28;18.20;99.90
3614;DHT22;1821;50.936;6.854;2022-07-23T00:33:30;18.20;99.90
3614;DHT22;1821;50.936;6.854;2022-07-23T00:34:12;18.30;99.90
3614;DHT22;1821;50.936;6.854;2022-07-23T00:34:54;18.30;99.90
3614;DHT22;1821;50.936;6.854;2022-07-23T00:35:37;18.30;99.90
3614;DHT22;1821;50.936;6.854;2022-07-23T00:36:25;18.30;99.90
3614;DHT22;1821;50.936;6.854;2022-07-23T00:37:06;18.30;99.90
3614;DHT22;1821;50.936;6.854;2022-07-23T00:37:48;18.20;99.90
3614;DHT22;1821;50.936;6.854;2022-07-23T00:38:30;18.40;99.90
3614;DHT22;1821;50.936;6.854;2022-07-23T00:39:12;18.40;99.90
3614;DHT22;1821;50.936;6.854;2022-07-23T00:39:53;18.40;99.90
3614;DHT22;1821;50.936;6.854;2022-07-23T00:40:36;18.40;99.90
3614;DHT22;1821;50.936;6.854;2022-07-23T00:41:18;18.40;99.90
3614;DHT22;1821;50.936;6.854;2022-07-23T00:42:00;18.40;99.90
3614;DHT22;1821;50.936;6.854;2022-07-23T00:42:42;18.80;99.90
3614;DHT22;1821;50.936;6.854;2022-07-23T00:43:24;18.40;99.90
3614;DHT22;1821;50.936;6.854;2022-07-23T00:44:19;18.40;99.90
3614;DHT22;1821;50.936;6.854;2022-07-23T00:45:01;18.40;99.90
3614;DHT22;1821;50.936;6.854;2022-07-23T00:45:43;18.20;99.90
3614;DHT22;1821;50.936;6.854;2022-07-23T00:46:25;18.10;99.90
3614;DHT22;1821;50.936;6.854;2022-07-23T00:47:08;18.20;99.90
3614;DHT22;1821;50.936;6.854;2022-07-23T00:47:50;18.20;99.90
3614;DHT22;1821;50.936;6.854;2022-07-23T00:48:32;18.20;99.90
3614;DHT22;1821;50.936;6.854;2022-07-23T00:49:14;18.30;99.90
3614;DHT22;1821;50.936;6.854;2022-07-23T00:49:56;18.30;99.90
3614;DHT22;1821;50.936;6.854;2022-07-23T00:50:38;18.20;99.90
3614;DHT22;1821;50.936;6.854;2022-07-23T00:51:19;18.20;99.90
3614;DHT22;1821;50.936;6.854;2022-07-23T00:52:02;18.20;99.90
3614;DHT22;1821;50.936;6.854;2022-07-23T00:52:44;18.20;99.90
3614;DHT22;1821;50.936;6.854;2022-07-23T00:53:27;18.20;99.90
3614;DHT22;1821;50.936;6.854;2022-07-23T00:54:09;18.10;99.90
3614;DHT22;1821;50.936;6.854;2022-07-23T00:54:51;18.20;99.90
3614;DHT22;1821;50.936;6.854;2022-07-23T00:55:33;18.20;99.90
3614;DHT22;1821;50.936;6.854;2022-07-23T00:56:15;18.20;99.90
3614;DHT22;1821;50.936;6.854;2022-07-23T00:56:57;18.00;99.90
3614;DHT22;1821;50.936;6.854;2022-07-23T00:57:40;18.20;99.90
3614;DHT22;1821;50.936;6.854;2022-07-23T00:58:22;18.20;99.90
3614;DHT22;1821;50.936;6.854;2022-07-23T00:59:05;18.10;99.90
3614;DHT22;1821;50.936;6.854;2022-07-23T00:59:48;18.10;99.90
3614;DHT22;1821;50.936;6.854;2022-07-23T01:00:29;18.00;99.90
3614;DHT22;1821;50.936;6.854;2022-07-23T01:01:11;18.00;99.90
3614;DHT22;1821;50.936;6.854;2022-07-23T01:01:53;18.10;99.90
3614;DHT22;1821;50.936;6.854;2022-07-23T01:02:35;18.10;99.90
3614;DHT22;1821;50.936;6.854;2022-07-23T01:03:17;18.10;99.90
3614;DHT22;1821;50.936;6.854;2022-07-23T01:03:58;18.10;99.90
3614;DHT22;1821;50.936;6.854;2022-07-23T01:04:40;18.00;99.90
3614;DHT22;1821;50.936;6.854;2022-07-23T01:05:22;18.00;99.90
3614;DHT22;1821;50.936;6.854;2022-07-23T01:06:04;18.10;99.90
3614;DHT22;1821;50.936;6.854;2022-07-23T01:06:46;18.00;99.90
3614;DHT22;1821;50.936;6.854;2022-07-23T01:07:28;18.00;99.90
3614;DHT22;1821;50.936;6.854;2022-07-23T01:08:10;18.10;99.90
3614;DHT22;1821;50.936;6.854;2022-07-23T01:08:53;18.10;99.90
3614;DHT22;1821;50.936;6.854;2022-07-23T01:09:37;18.10;99.90
3614;DHT22;1821;50.936;6.854;2022-07-23T01:10:19;18.10;99.90
3614;DHT22;1821;50.936;6.854;2022-07-23T01:11:13;18.10;99.90
3614;DHT22;1821;50.936;6.854;2022-07-23T01:11:55;18.00;99.90
3614;DHT22;1821;50.936;6.854;2022-07-23T01:12:38;18.00;99.90
3614;DHT22;1821;50.936;6.854;2022-07-23T01:13:19;18.00;99.90
3614;DHT22;1821;50.936;6.854;2022-07-23T01:14:09;18.10;99.90
3614;DHT22;1821;50.936;6.854;2022-07-23T01:14:59;18.00;99.90
3614;DHT22;1821;50.936;6.854;2022-07-23T01:15:41;18.00;99.90
3614;DHT22;1821;50.936;6.854;2022-07-23T01:16:23;18.00;99.90
3614;DHT22;1821;50.936;6.854;2022-07-23T01:17:05;18.10;99.90
3614;DHT22;1821;50.936;6.854;2022-07-23T01:17:47;17.90;99.90
3614;DHT22;1821;50.936;6.854;2022-07-23T01:18:28;17.80;99.90
3614;DHT22;1821;50.936;6.854;2022-07-23T01:19:11;18.10;99.90
3614;DHT22;1821;50.936;6.854;2022-07-23T01:19:54;18.00;99.90
3614;DHT22;1821;50.936;6.854;2022-07-23T01:20:36;18.10;99.90
3614;DHT22;1821;50.936;6.854;2022-07-23T01:21:18;18.10;99.90
3614;DHT22;1821;50.936;6.854;2022-07-23T01:22:03;18.00;99.90
3614;DHT22;1821;50.936;6.854;2022-07-23T01:22:45;18.00;99.90
3614;DHT22;1821;50.936;6.854;2022-07-23T01:23:27;18.00;99.90
3614;DHT22;1821;50.936;6.854;2022-07-23T01:24:10;18.10;99.90
3614;DHT22;1821;50.936;6.854;2022-07-23T01:24:52;18.10;99.90
3614;DHT22;1821;50.936;6.854;2022-07-23T01:25:33;18.00;99.90
3614;DHT22;1821;50.936;6.854;2022-07-23T01:26:15;18.10;99.90
3614;DHT22;1821;50.936;6.854;2022-07-23T01:26:58;18.10;99.90
3614;DHT22;1821;50.936;6.854;2022-07-23T01:27:40;18.10;99.90
3614;DHT22;1821;50.936;6.854;2022-07-23T01:28:22;18.10;99.90
3614;DHT22;1821;50.936;6.854;2022-07-23T01:29:04;18.10;99.90
3614;DHT22;1821;50.936;6.854;2022-07-23T01:29:46;18.10;99.90
3614;DHT22;1821;50.936;6.854;2022-07-23T01:30:27;18.10;99.90
3614;DHT22;1821;50.936;6.854;2022-07-23T01:31:09;18.10;99.90
3614;DHT22;1821;50.936;6.854;2022-07-23T01:31:51;18.10;99.90
3614;DHT22;1821;50.936;6.854;2022-07-23T01:32:33;18.10;99.90
3614;DHT22;1821;50.936;6.854;2022-07-23T01:33:15;18.00;99.90
3614;DHT22;1821;50.936;6.854;2022-07-23T01:33:57;18.00;99.90
3614;DHT22;1821;50.936;6.854;2022-07-23T01:34:41;18.00;99.90
3614;DHT22;1821;50.936;6.854;2022-07-23T01:35:22;18.10;99.90
3614;DHT22;1821;50.936;6.854;2022-07-23T01:36:04;18.10;99.90
3614;DHT22;1821;50.936;6.854;2022-07-23T01:36:46;18.00;99.90
3614;DHT22;1821;50.936;6.854;2022-07-23T01:37:28;18.00;99.90
3614;DHT22;1821;50.936;6.854;2022-07-23T01:38:10;18.00;99.90
3614;DHT22;1821;50.936;6.854;2022-07-23T01:38:52;18.00;99.90
3614;DHT22;1821;50.936;6.854;2022-07-23T01:39:33;18.00;99.90
3614;DHT22;1821;50.936;6.854;2022-07-23T01:40:15;17.90;99.90
3614;DHT22;1821;50.936;6.854;2022-07-23T01:40:59;18.00;99.90
3614;DHT22;1821;50.936;6.854;2022-07-23T01:41:41;18.00;99.90
3614;DHT22;1821;50.936;6.854;2022-07-23T01:42:26;18.00;99.90
3614;DHT22;1821;50.936;6.854;2022-07-23T01:43:08;18.00;99.90
3614;DHT22;1821;50.936;6.854;2022-07-23T01:43:51;18.00;99.90
3614;DHT22;1821;50.936;6.854;2022-07-23T01:44:33;17.90;99.90
3614;DHT22;1821;50.936;6.854;2022-07-23T01:45:15;17.90;99.90
3614;DHT22;1821;50.936;6.854;2022-07-23T01:45:56;17.80;99.90
3614;DHT22;1821;50.936;6.854;2022-07-23T01:46:39;17.80;99.90
3614;DHT22;1821;50.936;6.854;2022-07-23T01:47:20;17.80;99.90
3614;DHT22;1821;50.936;6.854;2022-07-23T01:48:02;17.70;99.90
3614;DHT22;1821;50.936;6.854;2022-07-23T01:48:51;17.80;99.90
3614;DHT22;1821;50.936;6.854;2022-07-23T01:49:33;17.70;99.90
3614;DHT22;1821;50.936;6.854;2022-07-23T01:50:14;17.70;99.90
3614;DHT22;1821;50.936;6.854;2022-07-23T01:50:56;17.70;99.90
3614;DHT22;1821;50.936;6.854;2022-07-23T01:51:38;17.80;99.90
3614;DHT22;1821;50.936;6.854;2022-07-23T01:52:40;17.80;99.90
3614;DHT22;1821;50.936;6.854;2022-07-23T01:53:21;17.80;99.90
3614;DHT22;1821;50.936;6.854;2022-07-23T01:54:03;17.70;99.90
3614;DHT22;1821;50.936;6.854;2022-07-23T01:54:45;17.70;99.90
3614;DHT22;1821;50.936;6.854;2022-07-23T01:55:27;17.60;99.90
3614;DHT22;1821;50.936;6.854;2022-07-23T01:56:08;17.70;99.90
3614;DHT22;1821;50.936;6.854;2022-07-23T01:56:50;17.70;99.90
3614;DHT22;1821;50.936;6.854;2022-07-23T01:57:32;17.70;99.90
3614;DHT22;1821;50.936;6.854;2022-07-23T01:58:14;17.60;99.90
3614;DHT22;1821;50.936;6.854;2022-07-23T01:58:56;17.80;99.90
3614;DHT22;1821;50.936;6.854;2022-07-23T01:59:38;17.70;99.90
3614;DHT22;1821;50.936;6.854;2022-07-23T02:00:20;17.60;99.90
3614;DHT22;1821;50.936;6.854;2022-07-23T02:01:02;17.60;99.90
3614;DHT22;1821;50.936;6.854;2022-07-23T02:01:44;17.70;99.90
3614;DHT22;1821;50.936;6.854;2022-07-23T02:02:26;17.60;99.90
3614;DHT22;1821;50.936;6.854;2022-07-23T02:03:08;17.80;99.90
3614;DHT22;1821;50.936;6.854;2022-07-23T02:03:51;17.70;99.90
3614;DHT22;1821;50.936;6.854;2022-07-23T02:04:33;17.70;99.90
3614;DHT22;1821;50.936;6.854;2022-07-23T02:05:17;17.80;99.90
3614;DHT22;1821;50.936;6.854;2022-07-23T02:05:59;17.70;99.90
3614;DHT22;1821;50.936;6.854;2022-07-23T02:06:41;17.70;99.90
3614;DHT22;1821;50.936;6.854;2022-07-23T02:07:23;17.80;99.90
3614;DHT22;1821;50.936;6.854;2022-07-23T02:08:04;17.80;99.90
3614;DHT22;1821;50.936;6.854;2022-07-23T02:08:46;17.80;99.90
3614;DHT22;1821;50.936;6.854;2022-07-23T02:09:28;17.80;99.90
3614;DHT22;1821;50.936;6.854;2022-07-23T02:10:10;17.80;99.90
3614;DHT22;1821;50.936;6.854;2022-07-23T02:10:51;17.80;99.90
3614;DHT22;1821;50.936;6.854;2022-07-23T02:11:33;17.70;99.90
3614;DHT22;1821;50.936;6.854;2022-07-23T02:12:15;17.60;99.90
3614;DHT22;1821;50.936;6.854;2022-07-23T02:12:57;18.20;99.90
3614;DHT22;1821;50.936;6.854;2022-07-23T02:13:39;17.70;99.90
3614;DHT22;1821;50.936;6.854;2022-07-23T02:14:20;17.70;99.90
3614;DHT22;1821;50.936;6.854;2022-07-23T02:15:02;17.70;99.90
3614;DHT22;1821;50.936;6.854;2022-07-23T02:15:47;17.60;99.90
3614;DHT22;1821;50.936;6.854;2022-07-23T02:16:29;18.00;99.90
3614;DHT22;1821;50.936;6.854;2022-07-23T02:17:11;17.80;99.90
3614;DHT22;1821;50.936;6.854;2022-07-23T02:17:52;17.80;99.90
3614;DHT22;1821;50.936;6.854;2022-07-23T02:18:34;17.80;99.90
3614;DHT22;1821;50.936;6.854;2022-07-23T02:19:16;17.80;99.90
3614;DHT22;1821;50.936;6.854;2022-07-23T02:19:58;17.80;99.90
3614;DHT22;1821;50.936;6.854;2022-07-23T02:20:40;17.70;99.90
3614;DHT22;1821;50.936;6.854;2022-07-23T02:21:21;17.60;99.90
3614;DHT22;1821;50.936;6.854;2022-07-23T02:22:03;17.60;99.90
3614;DHT22;1821;50.936;6.854;2022-07-23T02:22:45;17.60;99.90
3614;DHT22;1821;50.936;6.854;2022-07-23T02:23:27;17.80;99.90
3614;DHT22;1821;50.936;6.854;2022-07-23T02:24:09;17.80;99.90
3614;DHT22;1821;50.936;6.854;2022-07-23T02:24:50;17.80;99.90
3614;DHT22;1821;50.936;6.854;2022-07-23T02:25:33;17.50;99.90
3614;DHT22;1821;50.936;6.854;2022-07-23T02:26:15;17.60;99.90
3614;DHT22;1821;50.936;6.854;2022-07-23T02:27:01;17.90;99.90
3614;DHT22;1821;50.936;6.854;2022-07-23T02:27:43;17.60;99.90
3614;DHT22;1821;50.936;6.854;2022-07-23T02:28:25;17.70;99.90
3614;DHT22;1821;50.936;6.854;2022-07-23T02:29:07;17.60;99.90
3614;DHT22;1821;50.936;6.854;2022-07-23T02:29:49;17.50;99.90
3614;DHT22;1821;50.936;6.854;2022-07-23T02:30:31;17.70;99.90
3614;DHT22;1821;50.936;6.854;2022-07-23T02:31:13;17.70;99.90
3614;DHT22;1821;50.936;6.854;2022-07-23T02:31:55;17.70;99.90
3614;DHT22;1821;50.936;6.854;2022-07-23T02:32:37;17.60;99.90
3614;DHT22;1821;50.936;6.854;2022-07-23T02:33:19;17.50;99.90
3614;DHT22;1821;50.936;6.854;2022-07-23T02:34:00;17.70;99.90
3614;DHT22;1821;50.936;6.854;2022-07-23T02:34:42;17.70;99.90
3614;DHT22;1821;50.936;6.854;2022-07-23T02:35:24;17.70;99.90
3614;DHT22;1821;50.936;6.854;2022-07-23T02:36:06;17.60;99.90
3614;DHT22;1821;50.936;6.854;2022-07-23T02:36:48;17.70;99.90
3614;DHT22;1821;50.936;6.854;2022-07-23T02:37:30;18.00;99.90
3614;DHT22;1821;50.936;6.854;2022-07-23T02:38:12;17.70;99.90
3614;DHT22;1821;50.936;6.854;2022-07-23T02:38:54;17.70;99.90
3614;DHT22;1821;50.936;6.854;2022-07-23T02:39:36;17.80;99.90
3614;DHT22;1821;50.936;6.854;2022-07-23T02:40:18;17.70;99.90
3614;DHT22;1821;50.936;6.854;2022-07-23T02:41:00;17.70;99.90
3614;DHT22;1821;50.936;6.854;2022-07-23T02:41:41;17.70;99.90
3614;DHT22;1821;50.936;6.854;2022-07-23T02:42:23;17.70;99.90
3614;DHT22;1821;50.936;6.854;2022-07-23T02:43:05;17.70;99.90
3614;DHT22;1821;50.936;6.854;2022-07-23T02:43:47;17.70;99.90
3614;DHT22;1821;50.936;6.854;2022-07-23T02:44:29;17.70;99.90
3614;DHT22;1821;50.936;6.854;2022-07-23T02:45:11;17.70;99.90
3614;DHT22;1821;50.936;6.854;2022-07-23T02:45:52;17.70;99.90
3614;DHT22;1821;50.936;6.854;2022-07-23T02:46:34;17.70;99.90
3614;DHT22;1821;50.936;6.854;2022-07-23T02:47:16;17.70;99.90
3614;DHT22;1821;50.936;6.854;2022-07-23T02:47:58;17.70;99.90
3614;DHT22;1821;50.936;6.854;2022-07-23T02:48:39;17.80;99.90
3614;DHT22;1821;50.936;6.854;2022-07-23T02:49:21;17.70;99.90
3614;DHT22;1821;50.936;6.854;2022-07-23T02:50:04;17.70;99.90
3614;DHT22;1821;50.936;6.854;2022-07-23T02:50:47;17.50;99.90
3614;DHT22;1821;50.936;6.854;2022-07-23T02:51:28;17.60;99.90
3614;DHT22;1821;50.936;6.854;2022-07-23T02:52:10;17.50;99.90
3614;DHT22;1821;50.936;6.854;2022-07-23T02:52:52;17.50;99.90
3614;DHT22;1821;50.936;6.854;2022-07-23T02:53:33;17.50;99.90
3614;DHT22;1821;50.936;6.854;2022-07-23T02:54:16;17.40;99.90
3614;DHT22;1821;50.936;6.854;2022-07-23T02:54:58;17.60;99.90
3614;DHT22;1821;50.936;6.854;2022-07-23T02:55:39;17.50;99.90
3614;DHT22;1821;50.936;6.854;2022-07-23T02:56:21;17.40;99.90
3614;DHT22;1821;50.936;6.854;2022-07-23T02:57:04;17.50;99.90
3614;DHT22;1821;50.936;6.854;2022-07-23T02:57:46;17.50;99.90
3614;DHT22;1821;50.936;6.854;2022-07-23T02:58:27;17.50;99.90
3614;DHT22;1821;50.936;6.854;2022-07-23T02:59:09;17.50;99.90
3614;DHT22;1821;50.936;6.854;2022-07-23T02:59:51;17.50;99.90
3614;DHT22;1821;50.936;6.854;2022-07-23T03:00:32;17.40;99.90
3614;DHT22;1821;50.936;6.854;2022-07-23T03:01:14;17.40;99.90
3614;DHT22;1821;50.936;6.854;2022-07-23T03:01:59;17.40;99.90
3614;DHT22;1821;50.936;6.854;2022-07-23T03:02:40;17.40;99.90
3614;DHT22;1821;50.936;6.854;2022-07-23T03:03:22;17.50;99.90
3614;DHT22;1821;50.936;6.854;2022-07-23T03:04:10;17.50;99.90
3614;DHT22;1821;50.936;6.854;2022-07-23T03:04:52;17.40;99.90
3614;DHT22;1821;50.936;6.854;2022-07-23T03:05:34;17.50;99.90
3614;DHT22;1821;50.936;6.854;2022-07-23T03:06:16;17.40;99.90
3614;DHT22;1821;50.936;6.854;2022-07-23T03:06:58;17.50;99.90
3614;DHT22;1821;50.936;6.854;2022-07-23T03:07:39;17.50;99.90
3614;DHT22;1821;50.936;6.854;2022-07-23T03:08:21;17.50;99.90
3614;DHT22;1821;50.936;6.854;2022-07-23T03:09:04;17.60;99.90
3614;DHT22;1821;50.936;6.854;2022-07-23T03:09:46;17.40;99.90
3614;DHT22;1821;50.936;6.854;2022-07-23T03:10:27;17.50;99.90
3614;DHT22;1821;50.936;6.854;2022-07-23T03:11:09;17.40;99.90
3614;DHT22;1821;50.936;6.854;2022-07-23T03:11:52;17.30;99.90
3614;DHT22;1821;50.936;6.854;2022-07-23T03:12:34;17.40;99.90
3614;DHT22;1821;50.936;6.854;2022-07-23T03:13:16;17.30;99.90
3614;DHT22;1821;50.936;6.854;2022-07-23T03:13:58;17.30;99.90
3614;DHT22;1821;50.936;6.854;2022-07-23T03:14:40;17.30;99.90
3614;DHT22;1821;50.936;6.854;2022-07-23T03:15:22;17.20;99.90
3614;DHT22;1821;50.936;6.854;2022-07-23T03:16:05;17.30;99.90
3614;DHT22;1821;50.936;6.854;2022-07-23T03:16:47;17.30;99.90
3614;DHT22;1821;50.936;6.854;2022-07-23T03:17:31;17.30;99.90
3614;DHT22;1821;50.936;6.854;2022-07-23T03:18:12;17.30;99.90
3614;DHT22;1821;50.936;6.854;2022-07-23T03:18:54;17.30;99.90
3614;DHT22;1821;50.936;6.854;2022-07-23T03:19:36;17.50;99.90
3614;DHT22;1821;50.936;6.854;2022-07-23T03:20:19;17.30;99.90
3614;DHT22;1821;50.936;6.854;2022-07-23T03:21:00;17.30;99.90
3614;DHT22;1821;50.936;6.854;2022-07-23T03:21:42;17.20;99.90
3614;DHT22;1821;50.936;6.854;2022-07-23T03:22:24;17.20;99.90
3614;DHT22;1821;50.936;6.854;2022-07-23T03:23:06;17.10;99.90
3614;DHT22;1821;50.936;6.854;2022-07-23T03:23:47;17.20;99.90
3614;DHT22;1821;50.936;6.854;2022-07-23T03:24:29;17.20;99.90
3614;DHT22;1821;50.936;6.854;2022-07-23T03:25:31;17.20;99.90
3614;DHT22;1821;50.936;6.854;2022-07-23T03:26:13;17.10;99.90
3614;DHT22;1821;50.936;6.854;2022-07-23T03:26:55;17.20;99.90
3614;DHT22;1821;50.936;6.854;2022-07-23T03:27:36;17.40;99.90
3614;DHT22;1821;50.936;6.854;2022-07-23T03:28:19;17.30;99.90
3614;DHT22;1821;50.936;6.854;2022-07-23T03:29:00;17.30;99.90
3614;DHT22;1821;50.936;6.854;2022-07-23T03:29:45;17.30;99.90
3614;DHT22;1821;50.936;6.854;2022-07-23T03:30:27;17.20;99.90
3614;DHT22;1821;50.936;6.854;2022-07-23T03:31:09;17.30;99.90
3614;DHT22;1821;50.936;6.854;2022-07-23T03:31:51;17.20;99.90
3614;DHT22;1821;50.936;6.854;2022-07-23T03:32:33;17.20;99.90
3614;DHT22;1821;50.936;6.854;2022-07-23T03:33:16;17.20;99.90
3614;DHT22;1821;50.936;6.854;2022-07-23T03:33:58;17.10;99.90
3614;DHT22;1821;50.936;6.854;2022-07-23T03:34:40;17.20;99.90
3614;DHT22;1821;50.936;6.854;2022-07-23T03:35:22;17.20;99.90
3614;DHT22;1821;50.936;6.854;2022-07-23T03:36:04;17.20;99.90
3614;DHT22;1821;50.936;6.854;2022-07-23T03:36:50;17.30;99.90
3614;DHT22;1821;50.936;6.854;2022-07-23T03:37:32;17.20;99.90
3614;DHT22;1821;50.936;6.854;2022-07-23T03:38:14;17.20;99.90
3614;DHT22;1821;50.936;6.854;2022-07-23T03:38:56;17.10;99.90
3614;DHT22;1821;50.936;6.854;2022-07-23T03:39:42;17.30;99.90
3614;DHT22;1821;50.936;6.854;2022-07-23T03:40:23;17.20;99.90
3614;DHT22;1821;50.936;6.854;2022-07-23T03:41:05;17.20;99.90
3614;DHT22;1821;50.936;6.854;2022-07-23T03:41:47;17.10;99.90
3614;DHT22;1821;50.936;6.854;2022-07-23T03:42:29;17.10;99.90
3614;DHT22;1821;50.936;6.854;2022-07-23T03:43:10;17.10;99.90
3614;DHT22;1821;50.936;6.854;2022-07-23T03:43:52;17.70;99.90
3614;DHT22;1821;50.936;6.854;2022-07-23T03:44:34;17.20;99.90
3614;DHT22;1821;50.936;6.854;2022-07-23T03:45:18;17.20;99.90
3614;DHT22;1821;50.936;6.854;2022-07-23T03:45:59;17.40;99.90
3614;DHT22;1821;50.936;6.854;2022-07-23T03:46:41;17.10;99.90
3614;DHT22;1821;50.936;6.854;2022-07-23T03:47:23;17.40;99.90
3614;DHT22;1821;50.936;6.854;2022-07-23T03:48:05;17.10;99.90
3614;DHT22;1821;50.936;6.854;2022-07-23T03:48:46;17.20;99.90
3614;DHT22;1821;50.936;6.854;2022-07-23T03:49:28;17.20;99.90
3614;DHT22;1821;50.936;6.854;2022-07-23T03:50:10;17.20;99.90
3614;DHT22;1821;50.936;6.854;2022-07-23T03:50:52;17.10;99.90
3614;DHT22;1821;50.936;6.854;2022-07-23T03:51:34;17.20;99.90
3614;DHT22;1821;50.936;6.854;2022-07-23T03:52:16;17.10;99.90
3614;DHT22;1821;50.936;6.854;2022-07-23T03:52:57;17.10;99.90
3614;DHT22;1821;50.936;6.854;2022-07-23T03:53:39;17.60;99.90
3614;DHT22;1821;50.936;6.854;2022-07-23T03:54:21;17.20;99.90
3614;DHT22;1821;50.936;6.854;2022-07-23T03:55:03;17.20;99.90
3614;DHT22;1821;50.936;6.854;2022-07-23T03:55:45;17.10;99.90
3614;DHT22;1821;50.936;6.854;2022-07-23T03:56:27;17.20;99.90
3614;DHT22;1821;50.936;6.854;2022-07-23T03:57:08;17.10;99.90
3614;DHT22;1821;50.936;6.854;2022-07-23T03:57:50;17.10;99.90
3614;DHT22;1821;50.936;6.854;2022-07-23T03:58:32;17.00;99.90
3614;DHT22;1821;50.936;6.854;2022-07-23T03:59:14;17.00;99.90
3614;DHT22;1821;50.936;6.854;2022-07-23T04:00:03;17.00;99.90
3614;DHT22;1821;50.936;6.854;2022-07-23T04:00:46;17.00;99.90
3614;DHT22;1821;50.936;6.854;2022-07-23T04:01:27;17.10;99.90
3614;DHT22;1821;50.936;6.854;2022-07-23T04:02:09;17.00;99.90
3614;DHT22;1821;50.936;6.854;2022-07-23T04:02:51;17.20;99.90
3614;DHT22;1821;50.936;6.854;2022-07-23T04:03:33;17.10;99.90
3614;DHT22;1821;50.936;6.854;2022-07-23T04:04:14;17.10;99.90
3614;DHT22;1821;50.936;6.854;2022-07-23T04:04:56;16.90;99.90
3614;DHT22;1821;50.936;6.854;2022-07-23T04:05:38;17.00;99.90
3614;DHT22;1821;50.936;6.854;2022-07-23T04:06:20;17.10;99.90
3614;DHT22;1821;50.936;6.854;2022-07-23T04:07:02;17.00;99.90
3614;DHT22;1821;50.936;6.854;2022-07-23T04:07:44;17.10;99.90
3614;DHT22;1821;50.936;6.854;2022-07-23T04:08:26;17.10;99.90
3614;DHT22;1821;50.936;6.854;2022-07-23T04:09:07;17.10;99.90
3614;DHT22;1821;50.936;6.854;2022-07-23T04:09:49;17.20;99.90
3614;DHT22;1821;50.936;6.854;2022-07-23T04:10:31;17.10;99.90
3614;DHT22;1821;50.936;6.854;2022-07-23T04:11:13;17.40;99.90
3614;DHT22;1821;50.936;6.854;2022-07-23T04:11:54;17.20;99.90
3614;DHT22;1821;50.936;6.854;2022-07-23T04:12:36;17.10;99.90
3614;DHT22;1821;50.936;6.854;2022-07-23T04:13:18;17.20;99.90
3614;DHT22;1821;50.936;6.854;2022-07-23T04:14:00;17.20;99.90
3614;DHT22;1821;50.936;6.854;2022-07-23T04:14:42;17.10;99.90
3614;DHT22;1821;50.936;6.854;2022-07-23T04:15:24;17.20;99.90
3614;DHT22;1821;50.936;6.854;2022-07-23T04:16:06;17.10;99.90
3614;DHT22;1821;50.936;6.854;2022-07-23T04:16:48;17.10;99.90
3614;DHT22;1821;50.936;6.854;2022-07-23T04:17:29;17.00;99.90
3614;DHT22;1821;50.936;6.854;2022-07-23T04:18:11;17.20;99.90
3614;DHT22;1821;50.936;6.854;2022-07-23T04:18:53;17.00;99.90
3614;DHT22;1821;50.936;6.854;2022-07-23T04:19:35;17.00;99.90
3614;DHT22;1821;50.936;6.854;2022-07-23T04:20:21;17.10;99.90
3614;DHT22;1821;50.936;6.854;2022-07-23T04:21:02;17.20;99.90
3614;DHT22;1821;50.936;6.854;2022-07-23T04:21:44;17.10;99.90
3614;DHT22;1821;50.936;6.854;2022-07-23T04:22:26;17.10;99.90
3614;DHT22;1821;50.936;6.854;2022-07-23T04:23:08;17.10;99.90
3614;DHT22;1821;50.936;6.854;2022-07-23T04:23:51;17.10;99.90
3614;DHT22;1821;50.936;6.854;2022-07-23T04:24:33;17.00;99.90
3614;DHT22;1821;50.936;6.854;2022-07-23T04:25:15;17.20;99.90
3614;DHT22;1821;50.936;6.854;2022-07-23T04:25:58;17.10;99.90
3614;DHT22;1821;50.936;6.854;2022-07-23T04:26:40;17.10;99.90
3614;DHT22;1821;50.936;6.854;2022-07-23T04:27:22;17.10;99.90
3614;DHT22;1821;50.936;6.854;2022-07-23T04:28:04;17.20;99.90
3614;DHT22;1821;50.936;6.854;2022-07-23T04:28:46;17.20;99.90
3614;DHT22;1821;50.936;6.854;2022-07-23T04:29:27;17.00;99.90
3614;DHT22;1821;50.936;6.854;2022-07-23T04:30:09;17.00;99.90
3614;DHT22;1821;50.936;6.854;2022-07-23T04:30:51;17.20;99.90
3614;DHT22;1821;50.936;6.854;2022-07-23T04:31:33;17.00;99.90
3614;DHT22;1821;50.936;6.854;2022-07-23T04:32:18;17.20;99.90
3614;DHT22;1821;50.936;6.854;2022-07-23T04:33:00;17.00;99.90
3614;DHT22;1821;50.936;6.854;2022-07-23T04:33:41;17.20;99.90
3614;DHT22;1821;50.936;6.854;2022-07-23T04:34:23;17.10;99.90
3614;DHT22;1821;50.936;6.854;2022-07-23T04:35:08;17.20;99.90
3614;DHT22;1821;50.936;6.854;2022-07-23T04:35:50;17.00;99.90
3614;DHT22;1821;50.936;6.854;2022-07-23T04:36:32;17.20;99.90